sensor_id;sensor_type;location;lat;lon;timestamp;P1;durP1;ratioP1;P2;durP2;ratioP2
5153;SDS011;2595;53.584;10.084;2022-08-19T00:02:22;17.50;;;13.20;;
5153;SDS011;2595;53.584;10.084;2022-08-19T00:04:48;13.40;;;12.40;;
5153;SDS011;2595;53.584;10.084;2022-08-19T00:07:17;14.07;;;12.80;;
5153;SDS011;2595;53.584;10.084;2022-08-19T00:09:43;15.80;;;14.40;;
5153;SDS011;2595;53.584;10.084;2022-08-19T00:12:09;15.27;;;13.73;;
5153;SDS011;2595;53.584;10.084;2022-08-19T00:14:35;16.73;;;15.00;;
5153;SDS011;2595;53.584;10.084;2022-08-19T00:17:03;16.77;;;15.10;;
5153;SDS011;2595;53.584;10.084;2022-08-19T00:19:31;20.90;;;18.27;;
5153;SDS011;2595;53.584;10.084;2022-08-19T00:21:57;22.93;;;20.60;;
5153;SDS011;2595;53.584;10.084;2022-08-19T00:24:23;21.10;;;18.13;;
5153;SDS011;2595;53.584;10.084;2022-08-19T00:26:51;22.40;;;19.03;;
5153;SDS011;2595;53.584;10.084;2022-08-19T00:29:18;24.90;;;19.07;;
5153;SDS011;2595;53.584;10.084;2022-08-19T00:31:45;27.27;;;21.40;;
5153;SDS011;2595;53.584;10.084;2022-08-19T00:34:12;24.67;;;19.93;;
5153;SDS011;2595;53.584;10.084;2022-08-19T00:36:39;27.60;;;20.20;;
5153;SDS011;2595;53.584;10.084;2022-08-19T00:39:05;23.60;;;19.40;;
5153;SDS011;2595;53.584;10.084;2022-08-19T00:41:32;25.87;;;19.27;;
5153;SDS011;2595;53.584;10.084;2022-08-19T00:44:05;24.83;;;19.97;;
5153;SDS011;2595;53.584;10.084;2022-08-19T00:46:38;28.20;;;19.87;;
5153;SDS011;2595;53.584;10.084;2022-08-19T00:49:10;22.17;;;18.13;;
5153;SDS011;2595;53.584;10.084;2022-08-19T00:51:39;22.43;;;17.53;;
5153;SDS011;2595;53.584;10.084;2022-08-19T00:54:07;20.77;;;17.60;;
5153;SDS011;2595;53.584;10.084;2022-08-19T00:56:34;27.20;;;19.80;;
5153;SDS011;2595;53.584;10.084;2022-08-19T00:59:00;25.93;;;20.37;;
5153;SDS011;2595;53.584;10.084;2022-08-19T01:01:28;28.67;;;20.27;;
5153;SDS011;2595;53.584;10.084;2022-08-19T01:03:54;20.87;;;18.67;;
5153;SDS011;2595;53.584;10.084;2022-08-19T01:06:19;27.33;;;18.50;;
5153;SDS011;2595;53.584;10.084;2022-08-19T01:08:45;24.40;;;19.33;;
5153;SDS011;2595;53.584;10.084;2022-08-19T01:11:11;22.90;;;18.80;;
5153;SDS011;2595;53.584;10.084;2022-08-19T01:13:37;27.67;;;20.30;;
5153;SDS011;2595;53.584;10.084;2022-08-19T01:16:03;22.50;;;18.70;;
5153;SDS011;2595;53.584;10.084;2022-08-19T01:18:32;21.80;;;18.57;;
5153;SDS011;2595;53.584;10.084;2022-08-19T01:21:04;23.27;;;19.20;;
5153;SDS011;2595;53.584;10.084;2022-08-19T01:23:34;29.57;;;18.93;;
5153;SDS011;2595;53.584;10.084;2022-08-19T01:26:13;24.50;;;18.80;;
5153;SDS011;2595;53.584;10.084;2022-08-19T01:28:41;23.83;;;18.27;;
5153;SDS011;2595;53.584;10.084;2022-08-19T01:31:10;29.40;;;18.43;;
5153;SDS011;2595;53.584;10.084;2022-08-19T01:33:38;21.10;;;16.63;;
5153;SDS011;2595;53.584;10.084;2022-08-19T01:36:05;22.43;;;16.77;;
5153;SDS011;2595;53.584;10.084;2022-08-19T01:38:34;19.77;;;17.80;;
5153;SDS011;2595;53.584;10.084;2022-08-19T01:41:02;21.40;;;18.20;;
5153;SDS011;2595;53.584;10.084;2022-08-19T01:43:28;21.83;;;17.00;;
5153;SDS011;2595;53.584;10.084;2022-08-19T01:45:54;19.43;;;17.53;;
5153;SDS011;2595;53.584;10.084;2022-08-19T01:48:19;21.30;;;17.13;;
5153;SDS011;2595;53.584;10.084;2022-08-19T01:50:45;22.23;;;18.30;;
5153;SDS011;2595;53.584;10.084;2022-08-19T01:53:12;23.07;;;18.90;;
5153;SDS011;2595;53.584;10.084;2022-08-19T01:55:39;21.50;;;16.50;;
5153;SDS011;2595;53.584;10.084;2022-08-19T01:58:06;20.87;;;17.03;;
5153;SDS011;2595;53.584;10.084;2022-08-19T02:00:37;26.93;;;18.83;;
5153;SDS011;2595;53.584;10.084;2022-08-19T02:03:02;27.37;;;20.30;;
5153;SDS011;2595;53.584;10.084;2022-08-19T02:05:28;28.17;;;18.90;;
5153;SDS011;2595;53.584;10.084;2022-08-19T02:07:54;20.03;;;18.07;;
5153;SDS011;2595;53.584;10.084;2022-08-19T02:10:21;26.10;;;19.43;;
5153;SDS011;2595;53.584;10.084;2022-08-19T02:12:47;23.90;;;18.80;;
5153;SDS011;2595;53.584;10.084;2022-08-19T02:15:14;32.37;;;21.27;;
5153;SDS011;2595;53.584;10.084;2022-08-19T02:17:40;22.37;;;16.70;;
5153;SDS011;2595;53.584;10.084;2022-08-19T02:20:06;21.67;;;18.47;;
5153;SDS011;2595;53.584;10.084;2022-08-19T02:22:32;28.17;;;19.73;;
5153;SDS011;2595;53.584;10.084;2022-08-19T02:24:58;23.17;;;19.30;;
5153;SDS011;2595;53.584;10.084;2022-08-19T02:27:24;32.07;;;19.57;;
5153;SDS011;2595;53.584;10.084;2022-08-19T02:29:50;53.83;;;22.23;;
5153;SDS011;2595;53.584;10.084;2022-08-19T02:32:17;26.87;;;19.43;;
5153;SDS011;2595;53.584;10.084;2022-08-19T02:34:44;29.63;;;19.33;;
5153;SDS011;2595;53.584;10.084;2022-08-19T02:37:11;26.57;;;19.00;;
5153;SDS011;2595;53.584;10.084;2022-08-19T02:39:57;31.47;;;17.77;;
5153;SDS011;2595;53.584;10.084;2022-08-19T02:42:23;23.63;;;18.37;;
5153;SDS011;2595;53.584;10.084;2022-08-19T02:44:49;25.63;;;18.33;;
5153;SDS011;2595;53.584;10.084;2022-08-19T02:47:16;31.10;;;18.80;;
5153;SDS011;2595;53.584;10.084;2022-08-19T02:49:43;23.93;;;16.90;;
5153;SDS011;2595;53.584;10.084;2022-08-19T02:52:09;23.87;;;17.90;;
5153;SDS011;2595;53.584;10.084;2022-08-19T02:54:36;25.50;;;18.87;;
5153;SDS011;2595;53.584;10.084;2022-08-19T02:57:03;26.50;;;19.27;;
5153;SDS011;2595;53.584;10.084;2022-08-19T02:59:29;27.27;;;18.60;;
5153;SDS011;2595;53.584;10.084;2022-08-19T03:01:56;34.90;;;19.43;;
5153;SDS011;2595;53.584;10.084;2022-08-19T03:04:21;27.03;;;19.07;;
5153;SDS011;2595;53.584;10.084;2022-08-19T03:06:48;33.60;;;20.33;;
5153;SDS011;2595;53.584;10.084;2022-08-19T03:09:14;22.33;;;18.57;;
5153;SDS011;2595;53.584;10.084;2022-08-19T03:11:41;33.13;;;21.23;;
5153;SDS011;2595;53.584;10.084;2022-08-19T03:14:07;28.80;;;20.07;;
5153;SDS011;2595;53.584;10.084;2022-08-19T03:16:35;35.70;;;20.00;;
5153;SDS011;2595;53.584;10.084;2022-08-19T03:19:09;37.33;;;21.83;;
5153;SDS011;2595;53.584;10.084;2022-08-19T03:21:35;33.67;;;20.13;;
5153;SDS011;2595;53.584;10.084;2022-08-19T03:24:02;35.17;;;20.80;;
5153;SDS011;2595;53.584;10.084;2022-08-19T03:26:30;33.20;;;21.13;;
5153;SDS011;2595;53.584;10.084;2022-08-19T03:28:57;30.00;;;20.60;;
5153;SDS011;2595;53.584;10.084;2022-08-19T03:31:27;37.10;;;21.00;;
5153;SDS011;2595;53.584;10.084;2022-08-19T03:33:53;38.57;;;20.33;;
5153;SDS011;2595;53.584;10.084;2022-08-19T03:36:20;31.73;;;19.70;;
5153;SDS011;2595;53.584;10.084;2022-08-19T03:38:51;33.40;;;19.57;;
5153;SDS011;2595;53.584;10.084;2022-08-19T03:41:29;28.87;;;18.60;;
5153;SDS011;2595;53.584;10.084;2022-08-19T03:43:58;29.80;;;19.60;;
5153;SDS011;2595;53.584;10.084;2022-08-19T03:46:26;33.17;;;18.50;;
5153;SDS011;2595;53.584;10.084;2022-08-19T03:48:55;35.57;;;20.63;;
5153;SDS011;2595;53.584;10.084;2022-08-19T03:51:26;26.70;;;19.03;;
5153;SDS011;2595;53.584;10.084;2022-08-19T03:53:55;27.97;;;19.17;;
5153;SDS011;2595;53.584;10.084;2022-08-19T03:56:23;31.90;;;20.90;;
5153;SDS011;2595;53.584;10.084;2022-08-19T03:58:50;36.27;;;18.90;;
5153;SDS011;2595;53.584;10.084;2022-08-19T04:01:19;41.83;;;19.80;;
5153;SDS011;2595;53.584;10.084;2022-08-19T04:03:46;28.63;;;19.37;;
5153;SDS011;2595;53.584;10.084;2022-08-19T04:06:13;34.30;;;20.13;;
5153;SDS011;2595;53.584;10.084;2022-08-19T04:08:46;29.43;;;18.50;;
5153;SDS011;2595;53.584;10.084;2022-08-19T04:11:15;31.40;;;19.27;;
5153;SDS011;2595;53.584;10.084;2022-08-19T04:13:42;29.33;;;18.07;;
5153;SDS011;2595;53.584;10.084;2022-08-19T04:16:09;22.87;;;17.73;;
5153;SDS011;2595;53.584;10.084;2022-08-19T04:18:36;31.10;;;18.93;;
5153;SDS011;2595;53.584;10.084;2022-08-19T04:21:03;24.40;;;17.83;;
5153;SDS011;2595;53.584;10.084;2022-08-19T04:23:29;34.73;;;18.40;;
5153;SDS011;2595;53.584;10.084;2022-08-19T04:25:55;33.90;;;19.53;;
5153;SDS011;2595;53.584;10.084;2022-08-19T04:28:22;22.27;;;17.93;;
5153;SDS011;2595;53.584;10.084;2022-08-19T04:30:50;26.60;;;20.37;;
5153;SDS011;2595;53.584;10.084;2022-08-19T04:33:19;26.30;;;18.70;;
5153;SDS011;2595;53.584;10.084;2022-08-19T04:35:48;27.10;;;20.17;;
5153;SDS011;2595;53.584;10.084;2022-08-19T04:38:17;32.73;;;20.60;;
5153;SDS011;2595;53.584;10.084;2022-08-19T04:40:44;26.00;;;19.63;;
5153;SDS011;2595;53.584;10.084;2022-08-19T04:43:30;32.13;;;20.93;;
5153;SDS011;2595;53.584;10.084;2022-08-19T04:45:56;26.40;;;20.50;;
5153;SDS011;2595;53.584;10.084;2022-08-19T04:48:22;32.27;;;20.90;;
5153;SDS011;2595;53.584;10.084;2022-08-19T04:50:54;37.73;;;22.80;;
5153;SDS011;2595;53.584;10.084;2022-08-19T04:53:28;32.87;;;23.73;;
5153;SDS011;2595;53.584;10.084;2022-08-19T04:55:56;37.13;;;23.77;;
5153;SDS011;2595;53.584;10.084;2022-08-19T04:58:23;46.97;;;25.70;;
5153;SDS011;2595;53.584;10.084;2022-08-19T05:00:51;41.60;;;26.50;;
5153;SDS011;2595;53.584;10.084;2022-08-19T05:03:16;47.20;;;26.30;;
5153;SDS011;2595;53.584;10.084;2022-08-19T05:05:43;40.77;;;27.30;;
5153;SDS011;2595;53.584;10.084;2022-08-19T05:08:10;42.47;;;28.60;;
5153;SDS011;2595;53.584;10.084;2022-08-19T05:10:37;48.90;;;27.43;;
5153;SDS011;2595;53.584;10.084;2022-08-19T05:13:04;48.10;;;27.87;;
5153;SDS011;2595;53.584;10.084;2022-08-19T05:15:30;47.27;;;27.63;;
5153;SDS011;2595;53.584;10.084;2022-08-19T05:17:56;44.33;;;29.00;;
5153;SDS011;2595;53.584;10.084;2022-08-19T05:20:50;46.17;;;27.50;;
5153;SDS011;2595;53.584;10.084;2022-08-19T05:23:35;48.07;;;27.10;;
5153;SDS011;2595;53.584;10.084;2022-08-19T05:26:00;53.03;;;26.93;;
5153;SDS011;2595;53.584;10.084;2022-08-19T05:28:26;45.33;;;29.00;;
5153;SDS011;2595;53.584;10.084;2022-08-19T05:30:52;49.70;;;27.13;;
5153;SDS011;2595;53.584;10.084;2022-08-19T05:33:20;49.73;;;28.53;;
5153;SDS011;2595;53.584;10.084;2022-08-19T05:35:47;38.13;;;26.13;;
5153;SDS011;2595;53.584;10.084;2022-08-19T05:38:14;39.97;;;26.03;;
5153;SDS011;2595;53.584;10.084;2022-08-19T05:40:42;53.90;;;29.10;;
5153;SDS011;2595;53.584;10.084;2022-08-19T05:43:12;45.27;;;26.87;;
5153;SDS011;2595;53.584;10.084;2022-08-19T05:45:40;45.27;;;28.07;;
5153;SDS011;2595;53.584;10.084;2022-08-19T05:48:07;41.27;;;28.80;;
5153;SDS011;2595;53.584;10.084;2022-08-19T05:50:36;43.47;;;27.20;;
5153;SDS011;2595;53.584;10.084;2022-08-19T05:53:02;44.10;;;29.27;;
5153;SDS011;2595;53.584;10.084;2022-08-19T05:55:27;46.20;;;28.60;;
5153;SDS011;2595;53.584;10.084;2022-08-19T05:57:53;47.57;;;29.97;;
5153;SDS011;2595;53.584;10.084;2022-08-19T06:00:19;44.93;;;28.27;;
5153;SDS011;2595;53.584;10.084;2022-08-19T06:02:44;44.30;;;27.97;;
5153;SDS011;2595;53.584;10.084;2022-08-19T06:05:10;51.30;;;27.43;;
5153;SDS011;2595;53.584;10.084;2022-08-19T06:07:36;37.00;;;26.23;;
5153;SDS011;2595;53.584;10.084;2022-08-19T06:10:04;39.00;;;24.07;;
5153;SDS011;2595;53.584;10.084;2022-08-19T06:12:31;37.83;;;25.27;;
5153;SDS011;2595;53.584;10.084;2022-08-19T06:15:00;38.53;;;22.90;;
5153;SDS011;2595;53.584;10.084;2022-08-19T06:17:37;35.70;;;23.13;;
5153;SDS011;2595;53.584;10.084;2022-08-19T06:20:03;45.33;;;26.13;;
5153;SDS011;2595;53.584;10.084;2022-08-19T06:22:30;40.73;;;23.80;;
5153;SDS011;2595;53.584;10.084;2022-08-19T06:24:56;42.47;;;23.93;;
5153;SDS011;2595;53.584;10.084;2022-08-19T06:27:21;30.00;;;22.53;;
5153;SDS011;2595;53.584;10.084;2022-08-19T06:29:48;39.40;;;25.73;;
5153;SDS011;2595;53.584;10.084;2022-08-19T06:32:14;32.20;;;22.73;;
5153;SDS011;2595;53.584;10.084;2022-08-19T06:34:41;36.07;;;23.60;;
5153;SDS011;2595;53.584;10.084;2022-08-19T06:37:07;41.40;;;24.23;;
5153;SDS011;2595;53.584;10.084;2022-08-19T06:39:34;35.73;;;24.60;;
5153;SDS011;2595;53.584;10.084;2022-08-19T06:42:03;35.30;;;22.80;;
5153;SDS011;2595;53.584;10.084;2022-08-19T06:44:32;34.30;;;22.30;;
5153;SDS011;2595;53.584;10.084;2022-08-19T06:47:01;33.67;;;22.53;;
5153;SDS011;2595;53.584;10.084;2022-08-19T06:49:29;35.87;;;21.97;;
5153;SDS011;2595;53.584;10.084;2022-08-19T06:51:56;40.73;;;23.10;;
5153;SDS011;2595;53.584;10.084;2022-08-19T06:54:23;32.30;;;21.17;;
5153;SDS011;2595;53.584;10.084;2022-08-19T06:56:50;34.97;;;22.60;;
5153;SDS011;2595;53.584;10.084;2022-08-19T06:59:19;26.27;;;20.93;;
5153;SDS011;2595;53.584;10.084;2022-08-19T07:01:48;37.20;;;23.63;;
5153;SDS011;2595;53.584;10.084;2022-08-19T07:04:16;42.70;;;23.47;;
5153;SDS011;2595;53.584;10.084;2022-08-19T07:06:44;38.93;;;25.83;;
5153;SDS011;2595;53.584;10.084;2022-08-19T07:09:12;48.30;;;25.60;;
5153;SDS011;2595;53.584;10.084;2022-08-19T07:11:41;40.37;;;25.80;;
5153;SDS011;2595;53.584;10.084;2022-08-19T07:14:12;44.00;;;27.10;;
5153;SDS011;2595;53.584;10.084;2022-08-19T07:16:39;40.20;;;26.00;;
5153;SDS011;2595;53.584;10.084;2022-08-19T07:19:05;37.30;;;25.30;;
5153;SDS011;2595;53.584;10.084;2022-08-19T07:21:30;46.50;;;24.93;;
5153;SDS011;2595;53.584;10.084;2022-08-19T07:23:56;47.00;;;27.80;;
5153;SDS011;2595;53.584;10.084;2022-08-19T07:26:25;47.57;;;29.27;;
5153;SDS011;2595;53.584;10.084;2022-08-19T07:28:58;45.17;;;26.17;;
5153;SDS011;2595;53.584;10.084;2022-08-19T07:31:26;46.07;;;27.80;;
5153;SDS011;2595;53.584;10.084;2022-08-19T07:33:53;42.10;;;25.77;;
5153;SDS011;2595;53.584;10.084;2022-08-19T07:36:22;44.27;;;25.23;;
5153;SDS011;2595;53.584;10.084;2022-08-19T07:38:57;42.50;;;24.77;;
5153;SDS011;2595;53.584;10.084;2022-08-19T07:41:26;47.93;;;27.53;;
5153;SDS011;2595;53.584;10.084;2022-08-19T07:43:53;39.17;;;25.00;;
5153;SDS011;2595;53.584;10.084;2022-08-19T07:46:19;43.67;;;26.10;;
5153;SDS011;2595;53.584;10.084;2022-08-19T07:48:46;42.80;;;24.10;;
5153;SDS011;2595;53.584;10.084;2022-08-19T07:51:14;40.13;;;23.60;;
5153;SDS011;2595;53.584;10.084;2022-08-19T07:53:42;41.80;;;25.83;;
5153;SDS011;2595;53.584;10.084;2022-08-19T07:56:09;42.67;;;24.27;;
5153;SDS011;2595;53.584;10.084;2022-08-19T07:58:38;41.27;;;24.17;;
5153;SDS011;2595;53.584;10.084;2022-08-19T08:01:06;40.93;;;24.00;;
5153;SDS011;2595;53.584;10.084;2022-08-19T08:03:35;44.13;;;27.30;;
5153;SDS011;2595;53.584;10.084;2022-08-19T08:06:19;44.63;;;24.53;;
5153;SDS011;2595;53.584;10.084;2022-08-19T08:09:04;37.33;;;24.30;;
5153;SDS011;2595;53.584;10.084;2022-08-19T08:11:40;35.60;;;23.90;;
5153;SDS011;2595;53.584;10.084;2022-08-19T08:14:14;39.30;;;24.60;;
5153;SDS011;2595;53.584;10.084;2022-08-19T08:16:41;42.83;;;26.20;;
5153;SDS011;2595;53.584;10.084;2022-08-19T08:19:08;43.27;;;25.90;;
5153;SDS011;2595;53.584;10.084;2022-08-19T08:21:35;37.00;;;25.07;;
5153;SDS011;2595;53.584;10.084;2022-08-19T08:24:00;34.03;;;22.40;;
5153;SDS011;2595;53.584;10.084;2022-08-19T08:26:26;47.00;;;24.77;;
5153;SDS011;2595;53.584;10.084;2022-08-19T08:28:52;37.03;;;24.50;;
5153;SDS011;2595;53.584;10.084;2022-08-19T08:31:18;35.93;;;24.10;;
5153;SDS011;2595;53.584;10.084;2022-08-19T08:33:45;34.90;;;20.17;;
5153;SDS011;2595;53.584;10.084;2022-08-19T08:36:12;37.53;;;21.40;;
5153;SDS011;2595;53.584;10.084;2022-08-19T08:38:39;36.80;;;21.30;;
5153;SDS011;2595;53.584;10.084;2022-08-19T08:43:53;27.90;;;20.17;;
5153;SDS011;2595;53.584;10.084;2022-08-19T08:51:20;23.47;;;18.17;;
5153;SDS011;2595;53.584;10.084;2022-08-19T08:54:08;31.17;;;19.40;;
5153;SDS011;2595;53.584;10.084;2022-08-19T08:56:40;28.83;;;18.63;;
5153;SDS011;2595;53.584;10.084;2022-08-19T08:59:10;25.23;;;18.47;;
5153;SDS011;2595;53.584;10.084;2022-08-19T09:01:46;28.00;;;19.70;;
5153;SDS011;2595;53.584;10.084;2022-08-19T09:04:13;30.93;;;20.07;;
5153;SDS011;2595;53.584;10.084;2022-08-19T09:09:34;26.60;;;17.10;;
5153;SDS011;2595;53.584;10.084;2022-08-19T09:12:16;28.70;;;17.60;;
5153;SDS011;2595;53.584;10.084;2022-08-19T09:17:10;25.10;;;18.00;;
5153;SDS011;2595;53.584;10.084;2022-08-19T09:19:51;27.10;;;18.23;;
5153;SDS011;2595;53.584;10.084;2022-08-19T09:22:19;29.63;;;19.60;;
5153;SDS011;2595;53.584;10.084;2022-08-19T09:24:47;25.10;;;18.20;;
5153;SDS011;2595;53.584;10.084;2022-08-19T09:27:14;26.30;;;19.07;;
5153;SDS011;2595;53.584;10.084;2022-08-19T09:29:39;25.80;;;18.47;;
5153;SDS011;2595;53.584;10.084;2022-08-19T09:32:05;24.93;;;18.93;;
5153;SDS011;2595;53.584;10.084;2022-08-19T09:34:31;23.23;;;17.70;;
5153;SDS011;2595;53.584;10.084;2022-08-19T09:36:57;30.90;;;18.70;;
5153;SDS011;2595;53.584;10.084;2022-08-19T09:39:25;23.17;;;18.40;;
5153;SDS011;2595;53.584;10.084;2022-08-19T09:41:51;30.00;;;19.60;;
5153;SDS011;2595;53.584;10.084;2022-08-19T09:44:18;23.93;;;18.70;;
5153;SDS011;2595;53.584;10.084;2022-08-19T09:46:45;26.77;;;18.80;;
5153;SDS011;2595;53.584;10.084;2022-08-19T09:49:14;23.40;;;18.17;;
5153;SDS011;2595;53.584;10.084;2022-08-19T09:51:41;24.93;;;15.73;;
5153;SDS011;2595;53.584;10.084;2022-08-19T09:54:07;23.93;;;18.63;;
5153;SDS011;2595;53.584;10.084;2022-08-19T09:56:33;22.77;;;17.53;;
5153;SDS011;2595;53.584;10.084;2022-08-19T09:58:59;27.33;;;17.33;;
5153;SDS011;2595;53.584;10.084;2022-08-19T10:01:26;20.90;;;16.87;;
5153;SDS011;2595;53.584;10.084;2022-08-19T10:03:54;23.83;;;19.03;;
5153;SDS011;2595;53.584;10.084;2022-08-19T10:06:22;19.10;;;16.50;;
5153;SDS011;2595;53.584;10.084;2022-08-19T10:08:50;22.47;;;17.30;;
5153;SDS011;2595;53.584;10.084;2022-08-19T10:11:16;21.23;;;16.40;;
5153;SDS011;2595;53.584;10.084;2022-08-19T10:13:44;15.87;;;14.27;;
5153;SDS011;2595;53.584;10.084;2022-08-19T10:16:12;27.33;;;17.03;;
5153;SDS011;2595;53.584;10.084;2022-08-19T10:18:40;22.20;;;15.10;;
5153;SDS011;2595;53.584;10.084;2022-08-19T10:21:11;20.87;;;16.57;;
5153;SDS011;2595;53.584;10.084;2022-08-19T10:23:40;20.00;;;16.50;;
5153;SDS011;2595;53.584;10.084;2022-08-19T10:26:15;21.67;;;16.73;;
5153;SDS011;2595;53.584;10.084;2022-08-19T10:28:43;24.03;;;18.40;;
5153;SDS011;2595;53.584;10.084;2022-08-19T10:31:12;26.93;;;19.17;;
5153;SDS011;2595;53.584;10.084;2022-08-19T10:33:49;24.50;;;15.70;;
5153;SDS011;2595;53.584;10.084;2022-08-19T10:36:17;28.23;;;18.60;;
5153;SDS011;2595;53.584;10.084;2022-08-19T10:38:45;21.90;;;16.97;;
5153;SDS011;2595;53.584;10.084;2022-08-19T10:41:16;18.30;;;14.87;;
5153;SDS011;2595;53.584;10.084;2022-08-19T10:43:43;20.53;;;15.80;;
5153;SDS011;2595;53.584;10.084;2022-08-19T10:46:12;18.80;;;16.80;;
5153;SDS011;2595;53.584;10.084;2022-08-19T10:48:40;21.73;;;17.63;;
5153;SDS011;2595;53.584;10.084;2022-08-19T10:51:07;23.20;;;17.33;;
5153;SDS011;2595;53.584;10.084;2022-08-19T10:53:56;26.47;;;18.17;;
5153;SDS011;2595;53.584;10.084;2022-08-19T10:56:22;20.80;;;16.20;;
5153;SDS011;2595;53.584;10.084;2022-08-19T10:59:07;21.30;;;18.23;;
5153;SDS011;2595;53.584;10.084;2022-08-19T11:01:33;22.80;;;18.13;;
5153;SDS011;2595;53.584;10.084;2022-08-19T11:04:03;28.47;;;17.17;;
5153;SDS011;2595;53.584;10.084;2022-08-19T11:06:31;26.30;;;16.80;;
5153;SDS011;2595;53.584;10.084;2022-08-19T11:08:57;27.03;;;19.87;;
5153;SDS011;2595;53.584;10.084;2022-08-19T11:11:23;27.60;;;18.60;;
5153;SDS011;2595;53.584;10.084;2022-08-19T11:13:48;28.73;;;19.10;;
5153;SDS011;2595;53.584;10.084;2022-08-19T11:16:16;20.87;;;17.80;;
5153;SDS011;2595;53.584;10.084;2022-08-19T11:18:45;22.07;;;18.53;;
5153;SDS011;2595;53.584;10.084;2022-08-19T11:21:14;28.47;;;20.00;;
5153;SDS011;2595;53.584;10.084;2022-08-19T11:23:42;33.57;;;18.80;;
5153;SDS011;2595;53.584;10.084;2022-08-19T11:26:08;23.53;;;19.43;;
5153;SDS011;2595;53.584;10.084;2022-08-19T11:28:34;28.30;;;19.90;;
5153;SDS011;2595;53.584;10.084;2022-08-19T11:31:00;25.73;;;19.20;;
5153;SDS011;2595;53.584;10.084;2022-08-19T11:33:28;23.13;;;17.70;;
5153;SDS011;2595;53.584;10.084;2022-08-19T11:35:54;29.90;;;19.33;;
5153;SDS011;2595;53.584;10.084;2022-08-19T11:38:23;22.07;;;17.70;;
5153;SDS011;2595;53.584;10.084;2022-08-19T11:40:55;25.60;;;16.50;;
5153;SDS011;2595;53.584;10.084;2022-08-19T11:43:22;17.60;;;15.77;;
5153;SDS011;2595;53.584;10.084;2022-08-19T11:45:48;24.53;;;18.90;;
5153;SDS011;2595;53.584;10.084;2022-08-19T11:48:13;23.80;;;18.03;;
5153;SDS011;2595;53.584;10.084;2022-08-19T11:50:39;22.80;;;17.00;;
5153;SDS011;2595;53.584;10.084;2022-08-19T11:53:07;21.00;;;16.87;;
5153;SDS011;2595;53.584;10.084;2022-08-19T11:55:32;19.50;;;16.70;;
5153;SDS011;2595;53.584;10.084;2022-08-19T11:58:03;17.50;;;14.93;;
5153;SDS011;2595;53.584;10.084;2022-08-19T12:00:31;24.33;;;15.50;;
5153;SDS011;2595;53.584;10.084;2022-08-19T12:02:58;17.93;;;14.53;;
5153;SDS011;2595;53.584;10.084;2022-08-19T12:05:24;16.53;;;14.03;;
5153;SDS011;2595;53.584;10.084;2022-08-19T12:07:50;17.97;;;16.10;;
5153;SDS011;2595;53.584;10.084;2022-08-19T12:10:15;18.60;;;16.03;;
5153;SDS011;2595;53.584;10.084;2022-08-19T12:12:41;21.37;;;16.77;;
5153;SDS011;2595;53.584;10.084;2022-08-19T12:15:08;17.77;;;15.63;;
5153;SDS011;2595;53.584;10.084;2022-08-19T12:17:36;17.73;;;15.57;;
5153;SDS011;2595;53.584;10.084;2022-08-19T12:20:01;16.30;;;15.00;;
5153;SDS011;2595;53.584;10.084;2022-08-19T12:22:28;17.80;;;15.03;;
5153;SDS011;2595;53.584;10.084;2022-08-19T12:24:53;21.00;;;15.83;;
5153;SDS011;2595;53.584;10.084;2022-08-19T12:27:19;17.87;;;15.90;;
5153;SDS011;2595;53.584;10.084;2022-08-19T12:29:45;15.57;;;13.97;;
5153;SDS011;2595;53.584;10.084;2022-08-19T12:32:11;14.20;;;13.10;;
5153;SDS011;2595;53.584;10.084;2022-08-19T12:34:37;14.73;;;13.43;;
5153;SDS011;2595;53.584;10.084;2022-08-19T12:37:04;15.97;;;14.00;;
5153;SDS011;2595;53.584;10.084;2022-08-19T12:39:33;15.07;;;13.57;;
5153;SDS011;2595;53.584;10.084;2022-08-19T12:42:00;15.83;;;14.27;;
5153;SDS011;2595;53.584;10.084;2022-08-19T12:44:26;14.17;;;12.73;;
5153;SDS011;2595;53.584;10.084;2022-08-19T12:46:51;17.43;;;13.63;;
5153;SDS011;2595;53.584;10.084;2022-08-19T12:49:17;14.73;;;13.23;;
5153;SDS011;2595;53.584;10.084;2022-08-19T12:51:43;16.07;;;14.60;;
5153;SDS011;2595;53.584;10.084;2022-08-19T12:54:08;17.33;;;14.07;;
5153;SDS011;2595;53.584;10.084;2022-08-19T12:56:34;15.20;;;13.60;;
5153;SDS011;2595;53.584;10.084;2022-08-19T12:59:02;15.20;;;13.67;;
5153;SDS011;2595;53.584;10.084;2022-08-19T13:01:29;15.20;;;13.83;;
5153;SDS011;2595;53.584;10.084;2022-08-19T13:03:57;14.30;;;13.17;;
5153;SDS011;2595;53.584;10.084;2022-08-19T13:06:24;16.07;;;14.50;;
5153;SDS011;2595;53.584;10.084;2022-08-19T13:08:50;17.00;;;15.20;;
5153;SDS011;2595;53.584;10.084;2022-08-19T13:11:18;17.40;;;14.97;;
5153;SDS011;2595;53.584;10.084;2022-08-19T13:13:46;14.67;;;13.17;;
5153;SDS011;2595;53.584;10.084;2022-08-19T13:16:13;12.47;;;11.37;;
5153;SDS011;2595;53.584;10.084;2022-08-19T13:18:40;15.73;;;13.67;;
5153;SDS011;2595;53.584;10.084;2022-08-19T13:21:08;14.17;;;11.93;;
5153;SDS011;2595;53.584;10.084;2022-08-19T13:23:36;17.00;;;14.13;;
5153;SDS011;2595;53.584;10.084;2022-08-19T13:26:03;14.60;;;13.47;;
5153;SDS011;2595;53.584;10.084;2022-08-19T13:28:31;15.23;;;13.90;;
5153;SDS011;2595;53.584;10.084;2022-08-19T13:31:17;13.90;;;12.60;;
5153;SDS011;2595;53.584;10.084;2022-08-19T13:34:02;13.43;;;12.23;;
5153;SDS011;2595;53.584;10.084;2022-08-19T13:36:28;13.80;;;12.77;;
5153;SDS011;2595;53.584;10.084;2022-08-19T13:38:54;16.03;;;14.63;;
5153;SDS011;2595;53.584;10.084;2022-08-19T13:41:21;16.23;;;14.90;;
5153;SDS011;2595;53.584;10.084;2022-08-19T13:43:46;14.20;;;12.87;;
5153;SDS011;2595;53.584;10.084;2022-08-19T13:46:13;14.13;;;12.80;;
5153;SDS011;2595;53.584;10.084;2022-08-19T13:48:40;11.33;;;10.37;;
5153;SDS011;2595;53.584;10.084;2022-08-19T13:51:06;13.90;;;12.80;;
5153;SDS011;2595;53.584;10.084;2022-08-19T13:53:35;13.53;;;12.17;;
5153;SDS011;2595;53.584;10.084;2022-08-19T13:56:06;12.77;;;11.67;;
5153;SDS011;2595;53.584;10.084;2022-08-19T13:58:34;14.43;;;12.97;;
5153;SDS011;2595;53.584;10.084;2022-08-19T14:01:01;12.33;;;11.07;;
5153;SDS011;2595;53.584;10.084;2022-08-19T14:03:26;12.03;;;11.20;;
5153;SDS011;2595;53.584;10.084;2022-08-19T14:05:52;13.57;;;12.57;;
5153;SDS011;2595;53.584;10.084;2022-08-19T14:08:18;13.53;;;12.43;;
5153;SDS011;2595;53.584;10.084;2022-08-19T14:10:44;13.53;;;12.30;;
5153;SDS011;2595;53.584;10.084;2022-08-19T14:13:12;14.20;;;12.93;;
5153;SDS011;2595;53.584;10.084;2022-08-19T14:15:40;14.47;;;13.37;;
5153;SDS011;2595;53.584;10.084;2022-08-19T14:18:06;13.83;;;12.47;;
5153;SDS011;2595;53.584;10.084;2022-08-19T14:20:35;12.90;;;12.00;;
5153;SDS011;2595;53.584;10.084;2022-08-19T14:23:01;13.67;;;12.57;;
5153;SDS011;2595;53.584;10.084;2022-08-19T14:25:28;13.37;;;12.27;;
5153;SDS011;2595;53.584;10.084;2022-08-19T14:27:55;12.10;;;11.30;;
5153;SDS011;2595;53.584;10.084;2022-08-19T14:30:23;10.97;;;10.03;;
5153;SDS011;2595;53.584;10.084;2022-08-19T14:32:53;12.73;;;11.70;;
5153;SDS011;2595;53.584;10.084;2022-08-19T14:35:21;12.33;;;11.33;;
5153;SDS011;2595;53.584;10.084;2022-08-19T14:37:47;12.33;;;11.43;;
5153;SDS011;2595;53.584;10.084;2022-08-19T14:40:15;13.00;;;12.00;;
5153;SDS011;2595;53.584;10.084;2022-08-19T14:42:44;15.57;;;14.07;;
5153;SDS011;2595;53.584;10.084;2022-08-19T14:45:11;14.60;;;13.40;;
5153;SDS011;2595;53.584;10.084;2022-08-19T14:47:37;13.40;;;12.33;;
5153;SDS011;2595;53.584;10.084;2022-08-19T14:50:04;15.80;;;13.37;;
5153;SDS011;2595;53.584;10.084;2022-08-19T14:52:34;13.83;;;12.73;;